リヤド の空港の天気 - METARとTAF

キング・ハーリド国際空港(リヤド) ( OERK / RUH ) - サウジアラビア リヤド
飛行場実況気象(Metar)
観測時間07/16 09:00 AST (07/16 06:00 UTC)
風向・風速北西 3m/s
視程10km以上
天気現象
なし
気温37℃
湿度10%
気圧1004hPa
METAROERK 160600Z 31006KT CAVOK 37/01 Q1004 NOSIG
過去の天気等 Google飛行場航空写真 Wunderground天気予報

過去48時間のMETAR

飛行場予報(TAF)
発表時間: 7/16 08:00 AST (7/16 05:00 UTC)
予報対象時間: 16日9時 AST ~ 17日15時 AST
風向・風速北西 5m/s
視程7000m
少しの雲 雲底高度 1220m
全天の4割程度の雲 雲底高度 3050m
16日9時 AST ~ 16日15時 AST に一時的に
視程5000m
天気現象風塵
TAF OERK 160500Z 1606/1712 31010KT 7000 FEW040 SCT100
TEMPO 1606/1612 5000 DU